createdAt,value
2024-05-09T00:01:54.057Z,4.07
2024-05-09T00:05:06.231Z,4.06
2024-05-09T00:08:43.124Z,4.04
2024-05-09T00:12:10.547Z,4.03
2024-05-09T00:15:42.375Z,4.02
2024-05-09T00:19:19.315Z,4.01
2024-05-09T00:22:56.970Z,4.00
2024-05-09T00:44:16.914Z,4.03
2024-05-09T00:47:44.855Z,4.02
2024-05-09T00:51:11.428Z,3.99
2024-05-09T00:54:39.709Z,3.96
2024-05-09T00:58:37.741Z,3.90
2024-05-09T01:34:31.989Z,3.66
2024-05-09T01:38:07.374Z,3.67
2024-05-09T01:41:57.355Z,3.66
2024-05-09T01:49:28.316Z,3.60
2024-05-09T02:12:01.212Z,3.37
2024-05-09T02:15:55.386Z,3.33
2024-05-09T02:19:31.648Z,3.30
2024-05-09T02:22:57.895Z,3.26
2024-05-09T02:26:30.751Z,3.20
2024-05-09T02:29:51.255Z,3.16
2024-05-09T02:59:22.672Z,2.90
2024-05-09T03:02:52.479Z,2.89
2024-05-09T03:06:28.523Z,2.88
2024-05-09T03:09:45.350Z,2.83
2024-05-09T03:12:59.851Z,2.76
2024-05-09T03:16:29.986Z,2.75
2024-05-09T03:26:55.797Z,2.85
2024-05-09T03:30:26.210Z,2.90
2024-05-09T03:47:45.981Z,3.20
2024-05-09T03:59:19.617Z,3.52
2024-05-09T04:10:27.753Z,3.99
2024-05-09T04:39:05.292Z,5.87
2024-05-09T04:46:52.844Z,6.32
2024-05-09T04:50:30.163Z,6.55
2024-05-09T05:52:49.142Z,10.09
2024-05-09T05:55:55.027Z,10.26
2024-05-09T05:59:02.662Z,10.37
2024-05-09T06:02:13.926Z,10.48
2024-05-09T06:05:21.068Z,10.64
2024-05-09T06:08:30.761Z,10.85
2024-05-09T06:11:46.623Z,11.04
2024-05-09T06:15:11.163Z,11.22
2024-05-09T06:18:03.827Z,11.41
2024-05-09T06:21:19.827Z,11.53
2024-05-09T06:24:23.353Z,11.74
2024-05-09T06:27:01.274Z,11.93
2024-05-09T06:30:00.751Z,12.07
2024-05-09T06:33:08.012Z,12.20
2024-05-09T06:35:43.872Z,12.37
2024-05-09T06:38:55.904Z,12.46
2024-05-09T06:41:39.227Z,12.60
2024-05-09T06:44:42.366Z,12.83
2024-05-09T06:47:32.627Z,12.98
2024-05-09T06:50:52.659Z,13.16
2024-05-09T06:54:03.949Z,13.44
2024-05-09T06:56:49.278Z,13.71
2024-05-09T06:59:29.233Z,13.84
2024-05-09T07:02:05.911Z,13.87
2024-05-09T07:04:47.441Z,13.90
2024-05-09T07:07:28.030Z,14.07
2024-05-09T07:10:06.273Z,14.21
2024-05-09T07:12:42.594Z,14.44
2024-05-09T07:15:15.466Z,14.54
2024-05-09T07:17:56.683Z,14.64
2024-05-09T07:20:34.964Z,14.94
2024-05-09T07:23:06.206Z,15.45
2024-05-09T07:25:34.673Z,16.95
2024-05-09T07:28:05.290Z,19.78
2024-05-09T07:30:35.116Z,22.26
2024-05-09T07:33:04.188Z,24.21
2024-05-09T07:35:33.197Z,25.89
2024-05-09T07:38:03.263Z,27.54
2024-05-09T07:40:36.837Z,28.70
2024-05-09T07:43:07.572Z,29.45
2024-05-09T07:45:48.446Z,29.68
2024-05-09T07:53:40.404Z,28.65
2024-05-09T07:56:14.848Z,27.90
2024-05-09T07:58:44.352Z,27.88
2024-05-09T08:01:13.177Z,28.23
2024-05-09T08:03:42.911Z,28.87
2024-05-09T08:06:11.366Z,29.86
2024-05-09T08:08:39.856Z,30.53
2024-05-09T08:11:14.766Z,31.09
2024-05-09T08:13:45.115Z,31.77
2024-05-09T08:16:15.743Z,32.43
2024-05-09T08:18:47.198Z,32.92
2024-05-09T08:21:15.740Z,33.25
2024-05-09T08:23:45.091Z,33.34
2024-05-09T08:26:13.789Z,33.03
2024-05-09T08:28:42.572Z,32.18
2024-05-09T08:31:12.403Z,30.88
2024-05-09T08:33:45.625Z,30.51
2024-05-09T08:36:15.156Z,30.62
2024-05-09T08:38:46.246Z,31.05
2024-05-09T08:41:18.348Z,31.33
2024-05-09T08:43:47.176Z,31.66
2024-05-09T08:46:18.855Z,31.84
2024-05-09T08:48:48.394Z,31.46
2024-05-09T08:51:17.374Z,30.74
2024-05-09T08:53:46.428Z,30.27
2024-05-09T08:56:16.772Z,30.44
2024-05-09T08:58:46.131Z,31.45
2024-05-09T09:01:15.430Z,32.44
2024-05-09T09:03:45.451Z,33.25
2024-05-09T09:06:16.869Z,34.18
2024-05-09T09:08:48.896Z,34.45
2024-05-09T09:11:17.758Z,34.41
2024-05-09T09:13:47.515Z,34.80
2024-05-09T09:16:17.366Z,35.46
2024-05-09T09:18:48.379Z,35.92
2024-05-09T09:21:18.983Z,35.99
2024-05-09T09:23:49.240Z,36.05
2024-05-09T09:26:18.197Z,35.75
2024-05-09T09:28:47.776Z,35.66
2024-05-09T09:31:21.023Z,35.39
2024-05-09T09:33:49.952Z,34.83
2024-05-09T09:36:20.072Z,34.15
2024-05-09T09:38:52.027Z,33.29
2024-05-09T09:41:24.623Z,32.94
2024-05-09T09:43:57.457Z,32.64
2024-05-09T09:46:29.321Z,32.62
2024-05-09T09:48:58.588Z,32.39
2024-05-09T09:51:29.832Z,32.11
2024-05-09T09:54:01.619Z,31.69
2024-05-09T09:56:31.989Z,31.37
2024-05-09T09:59:05.896Z,31.30
2024-05-09T10:01:36.625Z,31.08
2024-05-09T10:04:07.104Z,30.79
2024-05-09T10:06:37.899Z,30.36
2024-05-09T10:09:06.253Z,29.75
2024-05-09T10:11:45.035Z,28.76
2024-05-09T10:14:23.137Z,28.23
2024-05-09T10:16:52.762Z,28.28
2024-05-09T10:19:26.662Z,28.24
2024-05-09T10:22:04.737Z,27.75
2024-05-09T10:24:52.141Z,26.89
2024-05-09T10:27:30.932Z,26.18
2024-05-09T10:30:00.519Z,25.66
2024-05-09T10:32:29.687Z,25.35
2024-05-09T10:35:05.574Z,25.12
2024-05-09T10:37:37.188Z,25.14
2024-05-09T10:40:13.982Z,25.26
2024-05-09T10:42:47.542Z,25.58
2024-05-09T10:45:16.744Z,26.02
2024-05-09T10:47:47.521Z,26.32
2024-05-09T10:50:22.592Z,26.22
2024-05-09T10:52:58.676Z,25.56
2024-05-09T10:55:29.146Z,24.92
2024-05-09T10:57:57.694Z,24.39
2024-05-09T11:00:36.423Z,24.03
2024-05-09T11:03:08.064Z,24.13
2024-05-09T11:05:36.746Z,24.68
2024-05-09T11:08:07.797Z,25.22
2024-05-09T11:10:37.168Z,25.67
2024-05-09T11:13:07.227Z,26.03
2024-05-09T11:15:40.764Z,26.34
2024-05-09T11:18:24.422Z,26.47
2024-05-09T11:20:55.607Z,26.49
2024-05-09T11:23:28.601Z,26.53
2024-05-09T11:25:57.985Z,26.38
2024-05-09T11:28:28.394Z,26.38
2024-05-09T11:31:06.100Z,26.26
2024-05-09T11:33:38.926Z,26.25
2024-05-09T11:36:09.403Z,26.50
2024-05-09T11:38:39.248Z,26.46
2024-05-09T11:41:07.627Z,26.55
2024-05-09T11:43:37.570Z,26.64
2024-05-09T11:46:10.460Z,26.58
2024-05-09T11:48:39.717Z,26.37
2024-05-09T11:51:09.301Z,26.22
2024-05-09T11:53:38.889Z,26.12
2024-05-09T11:56:07.906Z,26.00
2024-05-09T11:58:38.402Z,25.81
2024-05-09T12:01:07.222Z,25.85
2024-05-09T12:03:37.919Z,26.03
2024-05-09T12:06:08.238Z,25.91
2024-05-09T12:08:36.727Z,25.85
2024-05-09T12:11:06.924Z,25.73
2024-05-09T12:13:37.500Z,25.85
2024-05-09T12:16:06.420Z,25.90
2024-05-09T12:18:36.236Z,25.89
2024-05-09T12:21:05.172Z,25.94
2024-05-09T12:23:35.134Z,25.97
2024-05-09T12:26:05.652Z,25.99
2024-05-09T12:28:35.921Z,26.15
2024-05-09T12:31:05.984Z,26.15
2024-05-09T12:33:38.336Z,26.07
2024-05-09T12:36:07.664Z,26.00
2024-05-09T12:38:35.936Z,25.82
2024-05-09T12:41:05.404Z,25.47
2024-05-09T12:43:34.841Z,25.15
2024-05-09T12:46:03.784Z,25.21
2024-05-09T12:48:32.487Z,25.15
2024-05-09T12:51:03.455Z,25.06
2024-05-09T12:53:33.475Z,24.95
2024-05-09T12:56:04.310Z,25.20
2024-05-09T12:58:35.303Z,25.37
2024-05-09T13:01:03.875Z,25.39
2024-05-09T13:03:33.667Z,25.60
2024-05-09T13:06:05.005Z,25.40
2024-05-09T13:08:34.931Z,25.04
2024-05-09T13:11:03.692Z,24.82
2024-05-09T13:13:34.358Z,24.74
2024-05-09T13:16:05.613Z,24.84
2024-05-09T13:19:24.492Z,24.56
2024-05-09T13:21:56.605Z,24.27
2024-05-09T13:24:25.842Z,24.24
2024-05-09T13:26:55.980Z,24.22
2024-05-09T13:29:25.442Z,24.27
2024-05-09T13:31:53.984Z,24.35
2024-05-09T13:34:24.165Z,24.27
2024-05-09T13:36:53.661Z,24.27
2024-05-09T13:39:24.075Z,24.40
2024-05-09T13:41:52.482Z,24.44
2024-05-09T13:44:21.004Z,24.46
2024-05-09T13:46:51.010Z,24.50
2024-05-09T13:49:21.744Z,24.47
2024-05-09T13:51:51.843Z,24.69
2024-05-09T13:54:22.506Z,24.79
2024-05-09T13:56:52.599Z,24.67
2024-05-09T13:59:21.042Z,24.61
2024-05-09T14:01:49.866Z,24.55
2024-05-09T14:04:19.839Z,24.43
2024-05-09T14:06:49.684Z,24.27
2024-05-09T14:09:19.635Z,24.16
2024-05-09T14:11:48.401Z,23.82
2024-05-09T14:14:18.491Z,23.78
2024-05-09T14:17:13.200Z,23.91
2024-05-09T14:19:42.732Z,24.02
2024-05-09T14:22:13.327Z,23.96
2024-05-09T14:24:43.612Z,24.10
2024-05-09T14:27:14.032Z,24.15
2024-05-09T14:29:42.430Z,24.12
2024-05-09T14:32:10.955Z,23.89
2024-05-09T14:34:40.127Z,23.84
2024-05-09T14:37:08.828Z,23.73
2024-05-09T14:39:38.954Z,23.33
2024-05-09T14:42:07.618Z,23.23
2024-05-09T14:44:37.228Z,23.00
2024-05-09T14:47:07.044Z,22.51
2024-05-09T14:49:36.489Z,22.32
2024-05-09T14:52:06.954Z,22.56
2024-05-09T14:54:36.449Z,22.71
2024-05-09T14:57:06.106Z,22.59
2024-05-09T14:59:34.529Z,22.42
2024-05-09T15:02:03.218Z,22.32
2024-05-09T15:04:31.806Z,22.24
2024-05-09T15:07:00.366Z,22.13
2024-05-09T15:09:36.739Z,22.03
2024-05-09T15:12:05.321Z,21.88
2024-05-09T15:14:38.916Z,21.90
2024-05-09T15:17:07.434Z,21.97
2024-05-09T15:19:37.772Z,22.03
2024-05-09T15:22:06.385Z,22.11
2024-05-09T15:24:34.820Z,22.21
2024-05-09T15:27:04.626Z,22.20
2024-05-09T15:29:32.985Z,22.20
2024-05-09T15:32:01.827Z,22.25
2024-05-09T15:34:31.280Z,22.29
2024-05-09T15:37:01.531Z,22.25
2024-05-09T15:39:30.604Z,22.14
2024-05-09T15:42:02.849Z,22.19
2024-05-09T15:44:34.168Z,22.27
2024-05-09T15:47:04.327Z,22.26
2024-05-09T15:49:34.964Z,22.21
2024-05-09T15:52:04.053Z,22.15
2024-05-09T15:54:32.705Z,22.08
2024-05-09T15:57:01.161Z,21.91
2024-05-09T15:59:31.382Z,21.71
2024-05-09T16:02:02.007Z,21.61
2024-05-09T16:04:34.164Z,21.28
2024-05-09T16:07:04.100Z,20.93
2024-05-09T16:09:35.481Z,20.66
2024-05-09T16:12:05.437Z,20.60
2024-05-09T16:14:35.285Z,20.60
2024-05-09T16:17:30.806Z,20.71
2024-05-09T16:20:09.067Z,20.79
2024-05-09T16:22:43.676Z,20.82
2024-05-09T16:25:13.585Z,20.80
2024-05-09T16:27:45.565Z,20.79
2024-05-09T16:30:24.660Z,20.81
2024-05-09T16:33:01.870Z,20.70
2024-05-09T16:35:33.231Z,20.63
2024-05-09T16:38:03.996Z,20.56
2024-05-09T16:40:38.372Z,20.47
2024-05-09T16:43:11.907Z,20.33
2024-05-09T16:45:45.034Z,20.22
2024-05-09T16:48:15.070Z,20.14
2024-05-09T16:50:49.197Z,20.08
2024-05-09T16:53:19.546Z,19.97
2024-05-09T16:55:48.307Z,19.86
2024-05-09T16:58:20.884Z,19.78
2024-05-09T17:00:51.078Z,19.71
2024-05-09T17:03:25.389Z,19.60
2024-05-09T17:05:57.767Z,19.47
2024-05-09T17:08:28.952Z,19.33
2024-05-09T17:11:02.291Z,19.21
2024-05-09T17:13:39.908Z,19.08
2024-05-09T17:16:10.065Z,18.95
2024-05-09T17:19:29.466Z,18.83
2024-05-09T17:22:41.237Z,18.72
2024-05-09T17:25:11.750Z,18.51
2024-05-09T17:27:43.501Z,18.36
2024-05-09T17:30:28.074Z,18.21
2024-05-09T17:33:02.671Z,18.06
2024-05-09T17:35:33.571Z,17.91
2024-05-09T17:38:02.927Z,17.76
2024-05-09T17:40:35.972Z,17.63
2024-05-09T17:43:09.613Z,17.48
2024-05-09T17:45:45.737Z,17.32
2024-05-09T17:48:16.417Z,17.15
2024-05-09T17:50:48.179Z,16.97
2024-05-09T17:53:20.668Z,16.80
2024-05-09T17:55:54.096Z,16.61
2024-05-09T17:58:25.231Z,16.40
2024-05-09T18:01:34.376Z,16.24
2024-05-09T18:04:44.282Z,16.06
2024-05-09T18:08:13.565Z,15.86
2024-05-09T18:11:24.418Z,15.66
2024-05-09T18:14:04.791Z,15.49
2024-05-09T18:16:39.614Z,15.28
2024-05-09T18:19:16.178Z,15.05
2024-05-09T18:21:47.371Z,14.81
2024-05-09T18:24:22.416Z,14.63
2024-05-09T18:26:54.061Z,14.45
2024-05-09T18:29:23.969Z,14.31
2024-05-09T18:31:59.572Z,14.18
2024-05-09T18:34:29.483Z,14.03
2024-05-09T18:37:01.499Z,13.91
2024-05-09T18:39:38.321Z,13.76
2024-05-09T18:42:07.899Z,13.63
2024-05-09T18:44:36.643Z,13.48
2024-05-09T18:47:10.240Z,13.36
2024-05-09T18:49:40.745Z,13.23
2024-05-09T18:52:16.118Z,13.12
2024-05-09T18:54:49.357Z,12.95
2024-05-09T18:57:22.928Z,12.77
2024-05-09T18:59:59.449Z,12.65
2024-05-09T19:02:32.636Z,12.55
2024-05-09T19:05:09.135Z,12.44
2024-05-09T19:07:45.810Z,12.33
2024-05-09T19:10:28.869Z,12.24
2024-05-09T19:13:18.990Z,12.13
2024-05-09T19:15:56.816Z,12.02
2024-05-09T19:18:35.776Z,11.95
2024-05-09T19:21:15.825Z,11.88
2024-05-09T19:23:58.049Z,11.83
2024-05-09T19:26:40.230Z,11.70
2024-05-09T19:29:30.115Z,11.58
2024-05-09T19:32:16.128Z,11.48
2024-05-09T19:35:00.312Z,11.38
2024-05-09T19:37:43.837Z,11.29
2024-05-09T19:40:30.808Z,11.20
2024-05-09T19:43:09.787Z,11.10
2024-05-09T19:45:49.233Z,11.01
2024-05-09T19:48:31.559Z,10.91
2024-05-09T19:51:13.623Z,10.82
2024-05-09T19:54:01.805Z,10.75
2024-05-09T19:56:45.319Z,10.70
2024-05-09T19:59:31.339Z,10.65
2024-05-09T20:02:17.752Z,10.59
2024-05-09T20:05:04.465Z,10.53
2024-05-09T20:07:49.671Z,10.48
2024-05-09T20:10:36.654Z,10.43
2024-05-09T20:13:24.584Z,10.36
2024-05-09T20:16:14.185Z,10.32
2024-05-09T20:18:58.243Z,10.26
2024-05-09T20:21:46.269Z,10.19
2024-05-09T20:24:43.305Z,10.13
2024-05-09T20:27:20.855Z,10.06
2024-05-09T20:30:09.753Z,9.98
2024-05-09T20:33:01.313Z,9.87
2024-05-09T20:35:41.305Z,9.79
2024-05-09T20:38:27.291Z,9.72
2024-05-09T20:41:17.117Z,9.63
2024-05-09T20:44:11.018Z,9.50
2024-05-09T20:47:09.868Z,9.37
2024-05-09T20:49:50.782Z,9.27
2024-05-09T20:52:34.606Z,9.12
2024-05-09T20:55:15.954Z,8.96
2024-05-09T20:57:56.356Z,8.89
2024-05-09T21:00:39.763Z,8.84
2024-05-09T21:03:17.271Z,8.80
2024-05-09T21:05:49.010Z,8.74
2024-05-09T21:08:31.187Z,8.70
2024-05-09T21:11:23.179Z,8.67
2024-05-09T21:14:06.242Z,8.65
2024-05-09T21:16:51.722Z,8.65
2024-05-09T21:19:30.037Z,8.64
2024-05-09T21:22:07.702Z,8.62
2024-05-09T21:24:45.104Z,8.59
2024-05-09T21:27:24.846Z,8.58
2024-05-09T21:30:02.479Z,8.55
2024-05-09T21:32:41.475Z,8.50
2024-05-09T21:35:28.418Z,8.42
2024-05-09T21:38:15.191Z,8.37
2024-05-09T21:40:54.917Z,8.35
2024-05-09T21:43:27.147Z,8.32
2024-05-09T21:46:06.119Z,8.28
2024-05-09T21:48:40.918Z,8.24
2024-05-09T21:51:34.511Z,8.22
2024-05-09T21:54:28.774Z,8.15
2024-05-09T21:57:27.003Z,8.05
2024-05-09T22:00:36.451Z,8.00
2024-05-09T22:03:57.870Z,7.98
2024-05-09T22:07:14.871Z,7.94
2024-05-09T22:10:33.396Z,7.89
2024-05-09T22:13:29.503Z,7.80
2024-05-09T22:16:43.943Z,7.75
2024-05-09T22:19:30.117Z,7.69
2024-05-09T22:22:34.470Z,7.64
2024-05-09T22:25:41.232Z,7.60
2024-05-09T22:28:39.362Z,7.57
2024-05-09T22:31:47.201Z,7.52
2024-05-09T22:35:00.394Z,7.46
2024-05-09T22:38:05.013Z,7.40
2024-05-09T22:41:17.021Z,7.36
2024-05-09T22:44:31.840Z,7.32
2024-05-09T22:47:27.717Z,7.37
2024-05-09T22:50:26.791Z,7.52
2024-05-09T22:53:28.893Z,7.66
2024-05-09T22:56:58.022Z,7.68
2024-05-09T23:00:15.949Z,7.71
2024-05-09T23:03:22.015Z,7.75
2024-05-09T23:06:19.526Z,7.75
2024-05-09T23:09:22.260Z,7.76
2024-05-09T23:12:22.352Z,7.81
2024-05-09T23:15:28.049Z,7.89
2024-05-09T23:18:53.927Z,7.93
2024-05-09T23:22:22.421Z,8.04
2024-05-09T23:25:51.452Z,7.94
2024-05-09T23:29:03.492Z,7.84
2024-05-09T23:32:04.463Z,7.74
2024-05-09T23:35:26.036Z,7.65
2024-05-09T23:38:41.924Z,7.60
2024-05-09T23:41:49.143Z,7.55
2024-05-09T23:44:53.303Z,7.50
2024-05-09T23:47:57.842Z,7.42
2024-05-09T23:51:19.832Z,7.36
2024-05-09T23:54:40.396Z,7.30
2024-05-09T23:58:00.216Z,7.25
